Time;durP1;ratioP1;P1;durP2;ratioP2;P2;SDS_P1;SDS_P2;PMS_P1;PMS_P2;Temp;Humidity;BMP_temperature;BMP_pressure;BME280_temperature;BME280_humidity;BME280_pressure;Samples;Min_cycle;Max_cycle;Signal;HPM_P1;HPM_P2
2022/03/27 00:00:42;;;;;;;5.95;5.30;;;19.00;87.30;;;;;;4210335;28;20260;-72
2022/03/27 00:02:45;;;;;;;6.72;5.53;;;19.00;87.30;;;;;;4211311;28;20605;-73
2022/03/27 00:04:48;;;;;;;6.20;5.60;;;19.00;87.30;;;;;;4210963;28;20226;-72
2022/03/27 00:06:50;;;;;;;6.50;5.60;;;19.00;87.30;;;;;;4210854;28;20287;-72
2022/03/27 00:08:53;;;;;;;7.05;5.90;;;19.00;87.50;;;;;;4209971;28;20272;-73
2022/03/27 00:13:17;;;;;;;7.35;5.80;;;19.00;87.50;;;;;;4211008;28;20186;-72
2022/03/27 00:15:19;;;;;;;6.60;5.18;;;19.00;87.40;;;;;;4208226;28;20218;-72
2022/03/27 00:17:22;;;;;;;5.57;5.03;;;19.00;87.50;;;;;;4211391;28;20218;-73
2022/03/27 00:19:24;;;;;;;6.25;5.43;;;19.00;87.70;;;;;;4210397;28;20218;-72
2022/03/27 00:21:27;;;;;;;6.72;5.38;;;19.00;87.40;;;;;;4208498;28;20214;-73
2022/03/27 00:23:29;;;;;;;6.13;5.53;;;19.00;87.70;;;;;;4211278;28;20280;-73
2022/03/27 00:25:31;;;;;;;6.47;5.45;;;18.90;88.20;;;;;;4211308;28;20272;-73
2022/03/27 00:27:36;;;;;;;7.05;5.60;;;19.00;87.50;;;;;;4208032;28;20267;-73
2022/03/27 00:29:38;;;;;;;6.18;5.18;;;19.00;87.60;;;;;;4209001;28;20218;-72
2022/03/27 00:31:41;;;;;;;6.00;5.40;;;18.90;87.50;;;;;;4209187;28;20242;-72
2022/03/27 00:33:45;;;;;;;6.95;5.78;;;18.90;87.60;;;;;;4210862;28;20240;-72
2022/03/27 00:35:47;;;;;;;6.55;5.65;;;18.90;87.50;;;;;;4211277;28;20214;-72
2022/03/27 00:37:51;;;;;;;6.70;5.20;;;18.90;87.50;;;;;;4211017;28;20625;-73
2022/03/27 00:39:54;;;;;;;5.57;5.07;;;18.90;87.50;;;;;;4210405;28;20268;-72
2022/03/27 00:41:56;;;;;;;5.88;5.30;;;18.90;87.60;;;;;;4210930;28;20269;-73
2022/03/27 00:44:00;;;;;;;6.43;5.55;;;18.90;87.60;;;;;;4209557;28;20622;-73
2022/03/27 00:46:02;;;;;;;5.65;5.00;;;18.90;87.70;;;;;;4210115;28;20635;-72
2022/03/27 00:48:06;;;;;;;6.55;5.65;;;18.90;87.70;;;;;;4208241;28;20605;-72
2022/03/27 00:50:09;;;;;;;6.00;4.95;;;18.90;87.80;;;;;;4210434;28;20663;-72
2022/03/27 00:52:11;;;;;;;5.50;5.00;;;18.90;87.90;;;;;;4210020;28;20218;-72
2022/03/27 00:54:13;;;;;;;5.93;4.97;;;18.90;87.90;;;;;;4208855;28;20264;-73
2022/03/27 00:56:16;;;;;;;5.95;5.35;;;18.90;87.80;;;;;;4209173;28;20222;-72
2022/03/27 00:58:19;;;;;;;5.90;5.30;;;18.90;87.90;;;;;;4210761;28;20271;-72
2022/03/27 01:00:44;;;;;;;6.10;5.13;;;18.90;87.90;;;;;;4209959;28;20214;-72
2022/03/27 01:02:46;;;;;;;6.32;5.60;;;18.90;88.00;;;;;;4210580;28;20267;-73
2022/03/27 01:04:49;;;;;;;6.57;5.63;;;18.90;87.90;;;;;;4210376;28;20222;-72
2022/03/27 01:06:51;;;;;;;6.05;5.07;;;18.90;88.00;;;;;;4206206;28;20206;-72
2022/03/27 01:11:16;;;;;;;6.90;5.68;;;18.90;88.00;;;;;;4210955;28;20190;-72
2022/03/27 01:13:21;;;;;;;6.97;5.50;;;18.90;88.10;;;;;;4207930;28;20243;-73
2022/03/27 01:15:28;;;;;;;5.53;5.03;;;18.80;87.90;;;;;;4210869;28;20655;-72
2022/03/27 01:17:34;;;;;;;6.18;5.53;;;18.80;88.00;;;;;;4203957;28;20600;-72
2022/03/27 01:19:41;;;;;;;7.53;5.53;;;18.90;88.80;;;;;;4208797;28;20275;-72
2022/03/27 01:21:47;;;;;;;6.63;5.18;;;18.90;88.10;;;;;;4211193;28;20218;-73
2022/03/27 01:23:49;;;;;;;5.72;5.13;;;18.80;88.10;;;;;;4213763;28;20242;-73
2022/03/27 01:25:52;;;;;;;6.30;5.70;;;18.90;88.20;;;;;;4213531;28;20264;-73
2022/03/27 01:27:54;;;;;;;6.47;5.22;;;18.80;88.10;;;;;;4212208;28;20252;-72
2022/03/27 01:29:57;;;;;;;5.95;5.07;;;18.80;88.20;;;;;;4214242;28;20260;-72
2022/03/27 01:32:00;;;;;;;6.72;5.13;;;18.80;88.20;;;;;;4212886;28;20238;-72
2022/03/27 01:34:02;;;;;;;5.40;4.90;;;18.80;88.20;;;;;;4214072;28;20207;-73
2022/03/27 01:36:05;;;;;;;5.63;4.80;;;18.80;88.30;;;;;;4205957;28;20218;-72
2022/03/27 01:38:09;;;;;;;8.23;5.75;;;18.80;88.20;;;;;;4207444;28;20260;-72
2022/03/27 01:40:12;;;;;;;5.28;4.78;;;18.80;88.30;;;;;;4212117;28;20223;-73
2022/03/27 01:42:14;;;;;;;5.60;5.10;;;18.80;88.40;;;;;;4213840;28;20210;-73
2022/03/27 01:44:20;;;;;;;5.32;4.80;;;18.80;88.30;;;;;;4211944;28;20242;-72
2022/03/27 01:46:23;;;;;;;7.00;4.97;;;18.80;88.60;;;;;;4211091;28;20215;-72
2022/03/27 01:48:25;;;;;;;5.20;4.75;;;18.80;88.50;;;;;;4213137;28;20214;-72
2022/03/27 01:50:27;;;;;;;5.55;4.90;;;18.80;88.50;;;;;;4212419;28;20642;-72
2022/03/27 01:52:30;;;;;;;6.35;5.22;;;18.80;88.60;;;;;;4211519;28;20588;-72
2022/03/27 01:54:34;;;;;;;6.13;5.15;;;18.80;88.70;;;;;;4213597;28;20214;-72
2022/03/27 01:56:37;;;;;;;6.05;5.25;;;18.80;88.70;;;;;;4212885;28;20641;-73
2022/03/27 01:58:40;;;;;;;5.72;5.07;;;18.80;88.70;;;;;;4211780;28;20214;-72
2022/03/27 02:00:43;;;;;;;6.57;5.57;;;18.80;88.70;;;;;;4211291;28;20214;-72
2022/03/27 02:02:46;;;;;;;5.70;5.20;;;18.80;88.80;;;;;;4213441;28;20232;-72
2022/03/27 02:04:48;;;;;;;7.00;5.10;;;18.80;88.70;;;;;;4213249;28;20242;-72
2022/03/27 02:06:50;;;;;;;5.65;5.03;;;18.80;88.80;;;;;;4213189;28;20271;-72
2022/03/27 02:08:53;;;;;;;5.50;5.00;;;18.70;88.80;;;;;;4213238;28;20218;-72
2022/03/27 02:10:57;;;;;;;6.10;5.18;;;18.70;88.90;;;;;;4213479;28;20275;-72
2022/03/27 02:12:59;;;;;;;5.55;4.70;;;18.80;88.80;;;;;;4210733;28;20231;-72
2022/03/27 02:15:02;;;;;;;8.38;5.13;;;18.80;89.70;;;;;;4210219;28;20210;-72
2022/03/27 02:17:04;;;;;;;5.07;4.68;;;18.70;88.90;;;;;;4212220;28;20251;-73
2022/03/27 02:19:08;;;;;;;5.25;4.75;;;18.80;88.90;;;;;;4210940;28;20284;-73
2022/03/27 02:21:11;;;;;;;5.90;5.30;;;18.70;88.80;;;;;;4213062;28;20291;-72
2022/03/27 02:23:13;;;;;;;5.72;5.22;;;18.80;89.10;;;;;;4212273;28;21576;-72
2022/03/27 02:25:16;;;;;;;6.05;4.60;;;18.80;89.50;;;;;;4213312;28;20279;-73
2022/03/27 02:27:20;;;;;;;5.40;4.90;;;18.70;89.30;;;;;;4212636;28;20598;-72
2022/03/27 02:29:22;;;;;;;5.78;4.93;;;18.70;89.10;;;;;;4211870;28;20206;-72
2022/03/27 02:31:24;;;;;;;5.90;5.30;;;18.70;89.10;;;;;;4210580;28;20304;-72
2022/03/27 02:33:27;;;;;;;5.60;5.10;;;18.70;89.20;;;;;;4212107;28;20705;-73
2022/03/27 02:35:29;;;;;;;5.00;4.40;;;18.70;89.20;;;;;;4211812;28;20206;-72
2022/03/27 02:37:32;;;;;;;5.90;4.45;;;18.70;89.30;;;;;;4212790;28;20610;-73
2022/03/27 02:39:34;;;;;;;6.47;4.80;;;18.70;89.30;;;;;;4210452;28;20261;-73
2022/03/27 02:41:36;;;;;;;5.22;4.72;;;18.70;89.30;;;;;;4212629;28;20214;-72
2022/03/27 02:43:40;;;;;;;5.50;4.90;;;18.70;89.40;;;;;;4210654;28;20210;-72
2022/03/27 02:45:43;;;;;;;7.60;5.00;;;18.70;89.60;;;;;;4211428;28;20218;-73
2022/03/27 02:47:45;;;;;;;6.43;4.97;;;18.70;89.40;;;;;;4211126;28;20226;-72
2022/03/27 02:49:48;;;;;;;5.85;5.32;;;18.70;89.40;;;;;;4212684;28;20260;-72
2022/03/27 02:51:50;;;;;;;5.57;5.07;;;18.60;89.40;;;;;;4210568;28;20218;-72
2022/03/27 02:53:52;;;;;;;5.55;5.00;;;18.70;89.70;;;;;;4212562;28;20218;-72
2022/03/27 02:55:55;;;;;;;5.90;4.93;;;18.70;89.60;;;;;;4205575;28;20218;-72
2022/03/27 02:57:57;;;;;;;5.05;4.55;;;18.60;89.50;;;;;;4211878;28;20218;-72
2022/03/27 03:00:02;;;;;;;6.00;4.75;;;18.70;89.50;;;;;;4209990;28;20268;-72
2022/03/27 03:02:05;;;;;;;7.13;5.18;;;18.70;89.60;;;;;;4212279;28;20636;-72
2022/03/27 03:04:08;;;;;;;5.65;4.93;;;18.70;89.60;;;;;;4209451;28;20257;-72
2022/03/27 03:06:11;;;;;;;7.68;4.65;;;18.60;89.60;;;;;;4204504;28;20219;-72
2022/03/27 03:08:17;;;;;;;5.25;4.75;;;18.60;89.70;;;;;;4211647;28;20567;-72
2022/03/27 03:10:19;;;;;;;5.15;4.65;;;18.70;89.90;;;;;;4212794;28;20439;-72
2022/03/27 03:12:22;;;;;;;5.07;4.57;;;18.70;90.30;;;;;;4211830;28;20272;-72
2022/03/27 03:14:25;;;;;;;4.97;4.45;;;18.70;89.90;;;;;;4211883;28;20211;-72
2022/03/27 03:16:30;;;;;;;5.40;4.85;;;18.70;90.00;;;;;;4212266;28;20214;-72
2022/03/27 03:18:35;;;;;;;4.57;4.18;;;18.70;90.00;;;;;;4211642;28;20650;-73
2022/03/27 03:20:39;;;;;;;6.20;4.65;;;18.60;90.20;;;;;;4212469;28;20275;-72
2022/03/27 03:22:41;;;;;;;5.20;4.70;;;18.60;90.00;;;;;;4210428;28;20264;-72
2022/03/27 03:24:44;;;;;;;7.25;4.90;;;18.60;90.10;;;;;;4205719;28;20235;-72
2022/03/27 03:26:47;;;;;;;5.97;4.80;;;18.60;90.10;;;;;;4212037;28;20214;-72
2022/03/27 03:28:49;;;;;;;5.22;4.72;;;18.60;90.30;;;;;;4211979;28;20272;-72
2022/03/27 03:30:52;;;;;;;6.25;4.68;;;18.60;90.00;;;;;;4211635;28;20271;-72
2022/03/27 03:32:55;;;;;;;5.50;4.93;;;18.60;90.10;;;;;;4211889;28;20264;-72
2022/03/27 03:34:58;;;;;;;4.95;4.43;;;18.60;90.20;;;;;;4206910;28;20259;-72
2022/03/27 03:37:00;;;;;;;5.05;4.60;;;18.60;90.10;;;;;;4204608;28;20210;-72
2022/03/27 03:39:02;;;;;;;5.20;4.70;;;18.60;90.10;;;;;;4209247;28;20275;-72
2022/03/27 03:41:05;;;;;;;5.57;5.03;;;18.60;90.50;;;;;;4211594;28;20278;-72
2022/03/27 03:43:07;;;;;;;4.68;4.28;;;18.60;90.20;;;;;;4211464;28;20218;-72
2022/03/27 03:45:10;;;;;;;5.60;4.97;;;18.60;90.00;;;;;;4210473;28;20675;-72
2022/03/27 03:47:12;;;;;;;5.63;4.50;;;18.60;90.10;;;;;;4211918;28;20210;-72
2022/03/27 03:49:16;;;;;;;6.20;5.05;;;18.60;90.20;;;;;;4210740;28;20260;-72
2022/03/27 03:51:19;;;;;;;5.10;4.60;;;18.60;90.20;;;;;;4211295;28;20215;-72
2022/03/27 03:53:21;;;;;;;6.43;4.85;;;18.60;90.10;;;;;;4209507;28;20347;-73
2022/03/27 03:55:24;;;;;;;5.50;4.60;;;18.60;90.10;;;;;;4204720;28;20252;-72
2022/03/27 03:57:26;;;;;;;5.35;4.80;;;18.60;90.10;;;;;;4211608;28;20617;-72
2022/03/27 03:59:28;;;;;;;5.63;4.60;;;18.60;90.20;;;;;;4210829;28;20989;-72
2022/03/27 04:01:30;;;;;;;5.07;4.57;;;18.50;90.10;;;;;;4209616;28;20214;-72
2022/03/27 04:03:33;;;;;;;4.95;4.47;;;18.50;90.10;;;;;;4211039;28;20222;-72
2022/03/27 04:05:37;;;;;;;4.88;4.22;;;18.50;90.20;;;;;;4208179;28;20230;-72
2022/03/27 04:07:39;;;;;;;6.88;5.15;;;18.50;90.10;;;;;;4209689;28;20255;-72
2022/03/27 04:09:41;;;;;;;5.20;4.57;;;18.50;90.10;;;;;;4211413;28;20214;-72
2022/03/27 04:11:44;;;;;;;5.55;4.63;;;18.50;90.20;;;;;;4209832;28;20214;-72
2022/03/27 04:13:46;;;;;;;5.75;4.80;;;18.50;90.20;;;;;;4208928;28;20272;-72
2022/03/27 04:15:49;;;;;;;5.35;4.78;;;18.50;90.20;;;;;;4211158;28;20586;-72
2022/03/27 04:17:51;;;;;;;4.75;4.28;;;18.50;90.20;;;;;;4210547;28;20211;-72
2022/03/27 04:19:53;;;;;;;5.15;4.65;;;18.50;90.30;;;;;;4211403;28;20273;-72
2022/03/27 04:21:57;;;;;;;5.22;4.72;;;18.50;90.30;;;;;;4210266;28;20614;-72
2022/03/27 04:24:00;;;;;;;4.95;4.10;;;18.50;90.20;;;;;;4210295;28;20223;-72
2022/03/27 04:26:02;;;;;;;5.18;4.68;;;18.50;90.70;;;;;;4210075;28;20799;-72
2022/03/27 04:28:07;;;;;;;5.35;4.70;;;18.50;90.30;;;;;;4208900;28;20267;-73
2022/03/27 04:30:12;;;;;;;6.35;5.00;;;18.50;90.30;;;;;;4210600;28;20213;-73
2022/03/27 04:32:14;;;;;;;5.38;4.70;;;18.50;90.30;;;;;;4210203;28;20287;-73
2022/03/27 04:34:16;;;;;;;5.13;4.20;;;18.50;90.40;;;;;;4208517;28;20202;-73
2022/03/27 04:36:19;;;;;;;4.82;4.30;;;18.50;90.40;;;;;;4209601;28;20551;-73
2022/03/27 04:38:22;;;;;;;5.30;4.47;;;18.50;90.30;;;;;;4210980;28;20218;-73
2022/03/27 04:40:25;;;;;;;5.57;4.38;;;18.50;90.40;;;;;;4210314;28;20218;-73
2022/03/27 04:42:27;;;;;;;6.72;5.07;;;18.50;90.40;;;;;;4208850;28;20214;-73
2022/03/27 04:44:29;;;;;;;5.00;4.20;;;18.50;90.40;;;;;;4205432;28;20271;-73
2022/03/27 04:46:32;;;;;;;6.50;4.35;;;18.50;90.40;;;;;;4209455;28;20303;-73
2022/03/27 04:48:34;;;;;;;4.72;4.28;;;18.50;90.50;;;;;;4210957;28;20267;-73
2022/03/27 04:50:37;;;;;;;5.60;4.53;;;18.50;90.40;;;;;;4211072;28;20272;-73
2022/03/27 04:52:39;;;;;;;5.32;4.80;;;18.50;90.50;;;;;;4207165;28;20280;-73
2022/03/27 04:54:43;;;;;;;4.93;4.20;;;18.40;90.40;;;;;;4207265;28;20234;-73
2022/03/27 04:56:45;;;;;;;5.13;4.60;;;18.40;90.40;;;;;;4209244;28;20218;-73
2022/03/27 04:58:48;;;;;;;5.85;4.10;;;18.50;90.50;;;;;;4208962;28;20255;-73
2022/03/27 05:00:50;;;;;;;5.35;4.40;;;18.40;90.40;;;;;;4210423;28;20222;-73
2022/03/27 05:02:52;;;;;;;5.13;4.63;;;18.50;90.50;;;;;;4208665;28;20226;-73
2022/03/27 05:04:55;;;;;;;5.22;4.22;;;18.40;90.50;;;;;;4210963;28;20648;-73
2022/03/27 05:06:57;;;;;;;4.53;4.10;;;18.40;90.80;;;;;;4210809;28;20234;-73
2022/03/27 05:08:59;;;;;;;4.55;4.13;;;18.40;90.40;;;;;;4208098;28;20612;-73
2022/03/27 05:11:05;;;;;;;5.13;4.43;;;18.40;90.50;;;;;;4209970;28;20222;-73
2022/03/27 05:13:08;;;;;;;4.95;4.20;;;18.40;90.60;;;;;;4209202;28;20240;-73
2022/03/27 05:15:10;;;;;;;5.35;4.60;;;18.40;90.50;;;;;;4209249;28;20720;-73
2022/03/27 05:17:13;;;;;;;4.63;4.20;;;18.40;90.50;;;;;;4209011;28;20264;-73
2022/03/27 05:19:15;;;;;;;5.68;4.65;;;18.40;90.50;;;;;;4211052;28;20279;-73
2022/03/27 05:21:17;;;;;;;4.75;4.30;;;18.40;90.50;;;;;;4208757;28;20276;-73
2022/03/27 05:23:19;;;;;;;4.63;4.07;;;18.40;90.60;;;;;;4210638;28;20359;-73
2022/03/27 05:25:22;;;;;;;4.90;4.40;;;18.40;90.50;;;;;;4203382;28;21354;-73
2022/03/27 05:27:26;;;;;;;4.93;4.30;;;18.40;90.60;;;;;;4209462;28;20311;-73
2022/03/27 05:29:28;;;;;;;5.60;4.30;;;18.40;90.60;;;;;;4209595;28;20207;-73
2022/03/27 05:31:30;;;;;;;4.60;4.03;;;18.40;90.60;;;;;;4210660;28;20280;-73
2022/03/27 05:33:33;;;;;;;4.72;4.32;;;18.40;90.60;;;;;;4209077;28;20218;-73
2022/03/27 05:35:35;;;;;;;4.97;4.47;;;18.40;90.60;;;;;;4208616;28;20214;-73
2022/03/27 05:37:39;;;;;;;4.53;4.10;;;18.40;90.60;;;;;;4209546;28;20623;-73
2022/03/27 05:39:41;;;;;;;5.82;4.43;;;18.40;90.70;;;;;;4209675;28;20210;-73
2022/03/27 05:41:44;;;;;;;6.25;4.63;;;18.40;90.60;;;;;;4208618;28;20302;-72
2022/03/27 05:43:47;;;;;;;4.43;4.03;;;18.40;90.70;;;;;;4209595;28;21025;-73
2022/03/27 05:45:50;;;;;;;5.35;4.18;;;18.40;90.70;;;;;;4210311;28;20231;-73
2022/03/27 05:47:53;;;;;;;4.93;4.22;;;18.40;91.00;;;;;;4209151;28;20222;-73
2022/03/27 05:49:56;;;;;;;4.50;4.10;;;18.40;90.70;;;;;;4210511;28;20218;-72
2022/03/27 05:51:58;;;;;;;4.45;4.05;;;18.40;90.70;;;;;;4208498;28;20667;-73
2022/03/27 05:54:01;;;;;;;5.30;4.22;;;18.40;90.70;;;;;;4208569;28;20247;-73
2022/03/27 05:56:03;;;;;;;6.00;4.20;;;18.40;90.70;;;;;;4210001;28;20655;-73
2022/03/27 05:58:07;;;;;;;4.47;4.07;;;18.40;90.80;;;;;;4210620;28;20256;-73
2022/03/27 06:00:13;;;;;;;5.00;4.03;;;18.40;90.80;;;;;;4208187;28;20207;-72
2022/03/27 06:02:16;;;;;;;4.57;3.97;;;18.40;90.80;;;;;;4209402;28;20279;-73
2022/03/27 06:04:19;;;;;;;5.20;3.92;;;18.40;90.80;;;;;;4207699;28;20251;-73
2022/03/27 06:06:21;;;;;;;4.53;4.13;;;18.30;90.80;;;;;;4207630;28;20287;-72
2022/03/27 06:08:23;;;;;;;4.82;4.20;;;18.30;90.80;;;;;;4211769;28;20222;-73
2022/03/27 06:10:28;;;;;;;4.50;4.10;;;18.30;90.80;;;;;;4213387;28;20639;-73
2022/03/27 06:12:31;;;;;;;5.63;4.20;;;18.40;90.80;;;;;;4210898;28;20268;-73
2022/03/27 06:14:33;;;;;;;4.30;3.85;;;18.40;90.90;;;;;;4213371;28;20280;-73
2022/03/27 06:16:37;;;;;;;4.88;3.95;;;18.40;90.90;;;;;;4212516;28;20264;-73
2022/03/27 06:18:40;;;;;;;4.40;4.00;;;18.40;90.90;;;;;;4213009;28;20256;-73
2022/03/27 06:20:42;;;;;;;4.95;4.03;;;18.40;90.90;;;;;;4211712;28;20615;-73
2022/03/27 06:22:45;;;;;;;5.05;3.88;;;18.40;90.90;;;;;;4211056;28;20268;-74
2022/03/27 06:24:48;;;;;;;4.20;3.80;;;18.40;91.00;;;;;;4207489;28;20268;-74
2022/03/27 06:26:50;;;;;;;4.80;4.30;;;18.40;90.90;;;;;;4212413;28;20303;-74
2022/03/27 06:28:54;;;;;;;4.20;3.83;;;18.40;91.00;;;;;;4209557;28;20352;-74
2022/03/27 06:30:57;;;;;;;4.57;4.18;;;18.40;91.10;;;;;;4209424;28;20271;-74
2022/03/27 06:33:01;;;;;;;4.22;3.83;;;18.40;91.00;;;;;;4211829;27;20236;-73
2022/03/27 06:35:05;;;;;;;4.45;3.47;;;18.40;91.10;;;;;;4212784;28;20634;-74
2022/03/27 06:37:08;;;;;;;4.22;3.72;;;18.40;91.10;;;;;;4211565;28;20639;-74
2022/03/27 06:39:11;;;;;;;4.40;3.90;;;18.40;91.10;;;;;;4212270;28;20230;-74
2022/03/27 06:41:13;;;;;;;5.47;4.05;;;18.40;91.10;;;;;;4212667;28;20651;-74
2022/03/27 06:43:15;;;;;;;4.40;4.00;;;18.40;91.10;;;;;;4207189;28;20244;-74
2022/03/27 06:45:20;;;;;;;4.78;4.00;;;18.40;91.20;;;;;;4210222;28;20218;-73
2022/03/27 06:47:24;;;;;;;4.32;3.92;;;18.40;91.20;;;;;;4212251;28;20234;-73
2022/03/27 06:49:28;;;;;;;4.60;4.07;;;18.40;91.20;;;;;;4211094;28;20264;-74
2022/03/27 06:51:31;;;;;;;4.28;3.88;;;18.30;91.20;;;;;;4211918;28;20202;-74
2022/03/27 06:53:33;;;;;;;4.50;3.90;;;18.40;91.20;;;;;;4212008;28;20260;-74
2022/03/27 06:55:35;;;;;;;4.50;4.10;;;18.40;91.20;;;;;;4210822;28;20610;-74
2022/03/27 06:57:38;;;;;;;5.18;4.05;;;18.40;91.20;;;;;;4212316;28;20806;-74
2022/03/27 07:04:20;;;;;;;5.63;4.22;;;18.40;91.30;;;;;;4211824;28;20199;-73
2022/03/27 07:06:24;;;;;;;4.68;4.05;;;18.40;91.30;;;;;;4210850;28;20641;-74
2022/03/27 07:08:26;;;;;;;4.22;3.83;;;18.30;91.30;;;;;;4212599;28;20279;-73
2022/03/27 07:10:29;;;;;;;4.40;3.80;;;18.30;91.30;;;;;;4210745;28;20241;-74
2022/03/27 07:12:31;;;;;;;5.38;4.35;;;18.40;91.40;;;;;;4208950;28;20211;-74
2022/03/27 07:14:34;;;;;;;5.13;4.22;;;18.30;91.40;;;;;;4209056;28;20628;-74
2022/03/27 07:16:36;;;;;;;4.35;3.70;;;18.40;91.80;;;;;;4209166;28;20264;-74
2022/03/27 07:18:38;;;;;;;4.57;4.18;;;18.30;91.50;;;;;;4211595;28;20214;-74
2022/03/27 07:20:43;;;;;;;4.38;3.97;;;18.40;91.60;;;;;;4211624;28;20219;-74
2022/03/27 07:22:47;;;;;;;4.43;3.72;;;18.40;91.50;;;;;;4212343;28;20219;-74
2022/03/27 07:24:50;;;;;;;5.22;4.15;;;18.40;91.90;;;;;;4211103;28;20222;-74
2022/03/27 07:26:52;;;;;;;4.47;3.67;;;18.40;91.50;;;;;;4211070;28;20233;-74
2022/03/27 07:28:54;;;;;;;4.43;4.00;;;18.40;91.60;;;;;;4211208;28;20218;-74
2022/03/27 07:30:58;;;;;;;5.07;4.15;;;18.40;91.50;;;;;;4210541;28;20223;-74
2022/03/27 07:33:01;;;;;;;4.72;4.07;;;18.40;92.00;;;;;;4211789;28;20263;-74
2022/03/27 07:35:04;;;;;;;5.10;4.32;;;18.40;91.60;;;;;;4212219;28;20215;-74
2022/03/27 07:37:08;;;;;;;5.35;4.22;;;18.40;91.60;;;;;;4210674;28;20210;-73
2022/03/27 07:39:11;;;;;;;4.47;4.07;;;18.40;91.60;;;;;;4211662;28;20214;-74
2022/03/27 07:41:14;;;;;;;4.70;4.15;;;18.30;91.60;;;;;;4211068;28;20562;-74
2022/03/27 07:43:16;;;;;;;5.22;4.38;;;18.40;91.70;;;;;;4210743;28;20260;-74
2022/03/27 07:45:21;;;;;;;5.88;4.35;;;18.30;91.70;;;;;;4210875;28;20264;-74
2022/03/27 07:47:23;;;;;;;7.13;4.90;;;18.40;91.70;;;;;;4207772;28;20300;-74
2022/03/27 07:49:25;;;;;;;4.90;4.40;;;18.40;91.70;;;;;;4212120;28;20268;-74
2022/03/27 07:51:28;;;;;;;6.38;4.85;;;18.40;91.70;;;;;;4211820;28;20268;-74
2022/03/27 07:53:30;;;;;;;5.57;4.13;;;18.40;92.10;;;;;;4209003;28;20291;-74
2022/03/27 07:55:34;;;;;;;5.13;4.40;;;18.40;91.80;;;;;;4210010;28;20275;-74
2022/03/27 07:57:37;;;;;;;6.28;4.72;;;18.40;91.80;;;;;;4211634;28;20218;-74
2022/03/27 07:59:39;;;;;;;5.65;4.45;;;18.40;91.80;;;;;;4210560;28;20679;-74
2022/03/27 08:01:42;;;;;;;5.57;4.70;;;18.40;91.80;;;;;;4207935;28;20283;-74
2022/03/27 08:03:44;;;;;;;5.18;4.20;;;18.30;91.80;;;;;;4211589;28;20288;-74
2022/03/27 08:05:46;;;;;;;5.75;4.95;;;18.40;91.90;;;;;;4210542;28;20272;-74
2022/03/27 08:07:49;;;;;;;6.75;5.20;;;18.40;91.90;;;;;;4211501;28;20303;-74
2022/03/27 08:09:52;;;;;;;4.97;4.50;;;18.40;91.90;;;;;;4209646;28;20219;-74
2022/03/27 08:11:55;;;;;;;6.40;4.78;;;18.40;92.00;;;;;;4210330;28;20626;-74
2022/03/27 08:13:58;;;;;;;7.43;5.25;;;18.40;91.90;;;;;;4207477;28;20278;-74
2022/03/27 08:16:00;;;;;;;5.63;5.03;;;18.40;91.90;;;;;;4211278;28;20259;-74
2022/03/27 08:18:03;;;;;;;6.28;5.20;;;18.40;92.30;;;;;;4209648;28;20214;-74
2022/03/27 08:20:07;;;;;;;4.95;4.45;;;18.40;92.00;;;;;;4207421;28;20227;-74
2022/03/27 08:22:09;;;;;;;6.53;5.22;;;18.40;92.00;;;;;;4211153;28;20214;-74
2022/03/27 08:24:11;;;;;;;7.50;5.53;;;18.40;92.00;;;;;;4209709;28;20666;-74
2022/03/27 08:28:35;;;;;;;6.32;5.13;;;18.40;92.00;;;;;;4213583;28;20230;-74
2022/03/27 08:30:39;;;;;;;6.03;5.43;;;18.40;92.10;;;;;;4198293;28;20214;-74
2022/03/27 08:32:41;;;;;;;6.95;5.45;;;18.40;92.10;;;;;;4206986;28;20775;-74
2022/03/27 08:34:46;;;;;;;7.43;5.47;;;18.40;92.10;;;;;;4209617;28;20716;-74
2022/03/27 08:36:49;;;;;;;6.13;5.50;;;18.40;92.10;;;;;;4209680;28;20214;-73
2022/03/27 08:38:51;;;;;;;6.57;5.55;;;18.40;92.10;;;;;;4210608;28;20251;-74
2022/03/27 08:40:55;;;;;;;6.22;5.45;;;18.40;92.10;;;;;;4210393;28;20230;-74
2022/03/27 08:42:58;;;;;;;7.15;5.63;;;18.40;92.10;;;;;;4208773;28;20391;-74
2022/03/27 08:45:02;;;;;;;6.82;5.32;;;18.40;92.10;;;;;;4209992;28;20215;-74
2022/03/27 08:47:11;;;;;;;6.90;5.90;;;18.40;92.10;;;;;;4210265;28;20222;-74
2022/03/27 08:49:28;;;;;;;7.25;5.88;;;18.40;92.10;;;;;;4210368;28;20252;-74
2022/03/27 08:51:35;;;;;;;7.00;5.65;;;18.40;92.20;;;;;;4208468;28;20611;-74
2022/03/27 08:53:57;;;;;;;7.68;6.35;;;18.40;92.20;;;;;;4208851;28;20215;-74
2022/03/27 08:56:06;;;;;;;6.38;5.63;;;18.40;92.30;;;;;;4208551;28;20214;-74
2022/03/27 08:58:10;;;;;;;8.43;6.10;;;18.40;92.20;;;;;;4210553;28;20259;-74
2022/03/27 09:00:14;;;;;;;7.45;5.97;;;18.40;92.30;;;;;;4209314;28;20215;-74
2022/03/27 09:02:19;;;;;;;6.65;5.45;;;18.40;92.30;;;;;;4206663;28;20214;-74
2022/03/27 09:04:21;;;;;;;8.32;6.65;;;18.40;92.30;;;;;;4209730;28;20678;-74
2022/03/27 09:06:25;;;;;;;8.50;6.35;;;18.40;92.30;;;;;;4209298;28;20268;-74
2022/03/27 09:08:29;;;;;;;7.25;6.28;;;18.40;92.30;;;;;;4210466;28;20276;-74
2022/03/27 09:10:31;;;;;;;8.98;6.72;;;18.40;92.30;;;;;;4208854;28;20623;-73
2022/03/27 09:12:34;;;;;;;7.70;6.32;;;18.40;92.30;;;;;;4208959;28;20267;-73
2022/03/27 09:14:38;;;;;;;8.35;6.05;;;18.40;92.30;;;;;;4209394;28;20222;-73
2022/03/27 09:17:05;;;;;;;7.85;6.13;;;18.40;92.40;;;;;;4210138;28;20222;-73
2022/03/27 09:19:07;;;;;;;9.23;6.90;;;18.40;92.50;;;;;;4207624;28;20210;-73
2022/03/27 09:21:09;;;;;;;9.88;6.95;;;18.40;92.70;;;;;;4210252;28;20226;-73
2022/03/27 09:23:21;;;;;;;8.65;6.75;;;18.40;92.50;;;;;;4210816;28;20240;-73
2022/03/27 09:25:23;;;;;;;7.57;6.38;;;18.40;92.40;;;;;;4208246;28;20210;-73
2022/03/27 09:27:30;;;;;;;8.23;7.07;;;18.40;92.50;;;;;;4210558;28;20276;-73
2022/03/27 09:30:01;;;;;;;7.43;6.38;;;18.40;92.50;;;;;;4209097;28;20232;-73
2022/03/27 09:32:05;;;;;;;7.88;6.65;;;18.40;92.50;;;;;;4207068;28;20287;-73
2022/03/27 09:34:07;;;;;;;8.73;6.70;;;18.40;92.40;;;;;;4208292;28;20261;-73
2022/03/27 09:36:11;;;;;;;7.63;6.32;;;18.40;92.50;;;;;;4210259;28;20289;-73
2022/03/27 09:38:19;;;;;;;7.72;6.60;;;18.40;92.50;;;;;;4210422;28;20214;-73
2022/03/27 09:40:21;;;;;;;8.57;6.55;;;18.40;92.50;;;;;;4210636;28;20213;-73
2022/03/27 09:42:24;;;;;;;8.82;6.85;;;18.40;92.50;;;;;;4210769;28;20644;-73
2022/03/27 09:44:34;;;;;;;8.40;6.68;;;18.40;92.40;;;;;;4213644;28;20268;-73
2022/03/27 09:46:58;;;;;;;8.88;6.97;;;18.40;92.50;;;;;;4211957;28;20218;-73
2022/03/27 09:49:02;;;;;;;8.95;6.90;;;18.50;92.60;;;;;;4212228;28;20241;-73
2022/03/27 09:51:04;;;;;;;10.02;6.75;;;18.50;92.50;;;;;;4212537;28;20339;-73
2022/03/27 09:53:35;;;;;;;7.63;6.30;;;18.50;92.60;;;;;;4211769;28;20218;-73
2022/03/27 09:55:38;;;;;;;8.63;6.95;;;18.50;92.60;;;;;;4182131;28;20616;-73
2022/03/27 09:57:42;;;;;;;10.57;8.07;;;18.50;92.60;;;;;;4213222;28;20263;-73
2022/03/27 09:59:45;;;;;;;10.20;7.32;;;18.50;92.60;;;;;;4213532;28;20267;-73
2022/03/27 10:01:47;;;;;;;10.13;7.65;;;18.50;92.60;;;;;;4212502;28;20218;-73
2022/03/27 10:04:07;;;;;;;9.38;7.38;;;18.50;92.60;;;;;;4213089;28;20272;-73
2022/03/27 10:06:31;;;;;;;9.57;7.35;;;18.50;92.60;;;;;;4210409;28;20211;-73
2022/03/27 10:08:34;;;;;;;9.48;7.65;;;18.50;92.60;;;;;;4207878;28;20238;-73
2022/03/27 10:10:37;;;;;;;9.00;6.90;;;18.50;92.90;;;;;;4209907;28;20287;-73
2022/03/27 10:12:42;;;;;;;9.50;7.35;;;18.50;93.00;;;;;;4213322;28;20728;-74
2022/03/27 10:14:46;;;;;;;9.07;7.35;;;18.50;93.20;;;;;;4213045;28;20260;-73
2022/03/27 10:16:49;;;;;;;9.82;7.68;;;18.50;93.00;;;;;;4212698;28;20256;-73
2022/03/27 10:18:55;;;;;;;10.38;8.00;;;18.50;93.00;;;;;;4207413;28;20968;-73
2022/03/27 10:21:02;;;;;;;8.60;7.55;;;18.50;93.20;;;;;;4210034;28;20226;-72
2022/03/27 10:23:07;;;;;;;9.48;7.38;;;18.50;93.10;;;;;;4213393;28;20299;-73
2022/03/27 10:25:12;;;;;;;8.43;7.30;;;18.50;92.90;;;;;;4207279;28;20219;-73
2022/03/27 10:27:17;;;;;;;10.30;8.13;;;18.50;92.90;;;;;;4211693;28;20267;-73
2022/03/27 10:29:19;;;;;;;11.27;8.25;;;18.50;92.90;;;;;;4213084;28;20283;-73
2022/03/27 10:31:23;;;;;;;9.90;7.63;;;18.50;92.90;;;;;;4211814;28;20230;-73
2022/03/27 10:33:28;;;;;;;9.43;7.72;;;18.50;93.10;;;;;;4209305;28;20255;-74
2022/03/27 10:35:46;;;;;;;10.23;8.13;;;18.60;92.90;;;;;;4211495;28;20260;-73
2022/03/27 10:38:00;;;;;;;9.80;8.00;;;18.50;92.90;;;;;;4212878;28;20222;-73
2022/03/27 10:40:08;;;;;;;11.32;8.27;;;18.50;92.90;;;;;;4211232;28;20210;-73
2022/03/27 10:42:16;;;;;;;10.52;8.13;;;18.50;92.80;;;;;;4205095;28;20720;-73
2022/03/27 10:44:27;;;;;;;8.90;7.65;;;18.50;92.90;;;;;;4209996;28;20218;-73
2022/03/27 10:46:29;;;;;;;9.43;8.02;;;18.60;93.00;;;;;;4212469;28;20268;-72
2022/03/27 10:48:38;;;;;;;10.32;8.40;;;18.50;92.90;;;;;;4210211;28;20287;-73
2022/03/27 10:50:51;;;;;;;10.15;8.23;;;18.50;92.90;;;;;;4198854;28;20275;-73
2022/03/27 10:53:12;;;;;;;24.90;16.90;;;18.50;93.00;;;;;;4206590;28;20217;-72
2022/03/27 10:55:16;;;;;;;31.13;21.75;;;18.30;94.20;;;;;;4203798;28;20599;-72